createdAt,value
2022-09-15T00:01:10.203Z,7.20
2022-09-15T00:03:37.782Z,6.97
2022-09-15T00:06:04.952Z,7.13
2022-09-15T00:08:32.201Z,7.95
2022-09-15T00:11:11.910Z,7.60
2022-09-15T00:13:39.835Z,6.93
2022-09-15T00:16:07.691Z,7.90
2022-09-15T00:18:35.698Z,7.17
2022-09-15T00:21:12.154Z,7.20
2022-09-15T00:23:39.005Z,7.53
2022-09-15T00:26:11.542Z,6.70
2022-09-15T00:28:38.937Z,7.22
2022-09-15T00:31:13.879Z,6.70
2022-09-15T00:33:41.008Z,7.43
2022-09-15T00:36:13.953Z,6.85
2022-09-15T00:38:41.613Z,6.55
2022-09-15T00:41:11.024Z,6.20
2022-09-15T00:43:57.531Z,6.30
2022-09-15T00:46:39.730Z,6.18
2022-09-15T00:49:06.487Z,6.35
2022-09-15T00:51:50.934Z,6.10
2022-09-15T00:54:31.638Z,6.32
2022-09-15T00:57:02.727Z,6.55
2022-09-15T00:59:32.151Z,6.57
2022-09-15T01:02:05.504Z,6.90
2022-09-15T01:04:32.414Z,6.65
2022-09-15T01:07:03.540Z,6.93
2022-09-15T01:09:54.018Z,6.75
2022-09-15T01:12:22.678Z,6.40
2022-09-15T01:14:49.512Z,7.28
2022-09-15T01:17:50.103Z,6.88
2022-09-15T01:20:44.284Z,7.20
2022-09-15T01:23:32.949Z,7.00
2022-09-15T01:26:22.985Z,7.20
2022-09-15T01:29:14.655Z,6.70
2022-09-15T01:32:15.069Z,6.95
2022-09-15T01:34:51.284Z,7.25
2022-09-15T01:37:24.273Z,7.22
2022-09-15T01:39:54.462Z,7.05
2022-09-15T01:42:24.308Z,6.43
2022-09-15T01:45:01.832Z,6.55
2022-09-15T01:47:30.525Z,6.63
2022-09-15T01:50:04.994Z,6.60
2022-09-15T01:52:33.519Z,6.78
2022-09-15T01:55:05.551Z,7.03
2022-09-15T01:57:33.316Z,5.80
2022-09-15T02:00:00.807Z,6.00
2022-09-15T02:02:58.501Z,5.97
2022-09-15T02:05:35.968Z,6.13
2022-09-15T02:08:25.174Z,6.22
2022-09-15T02:10:58.789Z,6.05
2022-09-15T02:13:32.336Z,5.93
2022-09-15T02:16:00.846Z,5.80
2022-09-15T02:18:34.606Z,5.90
2022-09-15T02:21:12.683Z,6.20
2022-09-15T02:23:45.363Z,6.10
2022-09-15T02:26:17.527Z,6.50
2022-09-15T02:28:47.409Z,6.30
2022-09-15T02:31:18.046Z,5.82
2022-09-15T02:33:55.412Z,6.20
2022-09-15T02:36:23.241Z,5.78
2022-09-15T02:38:58.219Z,6.30
2022-09-15T02:41:25.145Z,5.32
2022-09-15T02:43:52.226Z,5.55
2022-09-15T02:46:21.302Z,5.50
2022-09-15T02:48:48.478Z,5.27
2022-09-15T02:51:17.994Z,5.40
2022-09-15T02:53:46.294Z,5.13
2022-09-15T02:56:13.625Z,4.80
2022-09-15T02:58:40.479Z,4.63
2022-09-15T03:01:08.485Z,4.30
2022-09-15T03:03:37.103Z,4.00
2022-09-15T03:06:17.663Z,4.55
2022-09-15T03:08:47.686Z,4.20
2022-09-15T03:11:15.457Z,4.22
2022-09-15T03:13:42.470Z,4.25
2022-09-15T03:16:11.417Z,4.40
2022-09-15T03:18:39.659Z,3.95
2022-09-15T03:21:09.311Z,3.65
2022-09-15T03:23:36.246Z,3.87
2022-09-15T03:26:04.310Z,3.55
2022-09-15T03:28:31.124Z,3.60
2022-09-15T03:30:58.068Z,3.50
2022-09-15T03:33:25.018Z,3.78
2022-09-15T03:35:52.942Z,3.38
2022-09-15T03:38:20.269Z,3.50
2022-09-15T03:41:01.568Z,2.80
2022-09-15T03:43:29.954Z,3.20
2022-09-15T03:45:57.565Z,3.08
2022-09-15T03:48:25.760Z,2.92
2022-09-15T03:50:53.180Z,3.00
2022-09-15T03:53:20.442Z,2.90
2022-09-15T03:55:48.940Z,2.97
2022-09-15T03:58:17.818Z,2.92
2022-09-15T04:00:45.899Z,3.10
2022-09-15T04:03:13.282Z,2.78
2022-09-15T04:05:40.689Z,3.10
2022-09-15T04:08:11.018Z,3.20
2022-09-15T04:10:39.382Z,3.28
2022-09-15T04:13:06.383Z,2.90
2022-09-15T04:15:33.301Z,2.10
2022-09-15T04:18:00.178Z,2.50
2022-09-15T04:20:27.176Z,2.30
2022-09-15T04:22:53.989Z,2.30
2022-09-15T04:25:20.798Z,2.72
2022-09-15T04:27:47.666Z,2.30
2022-09-15T04:30:14.480Z,2.90
2022-09-15T04:32:41.343Z,2.75
2022-09-15T04:35:08.696Z,2.33
2022-09-15T04:37:35.563Z,2.65
2022-09-15T04:40:02.934Z,2.67
2022-09-15T04:42:31.080Z,2.50
2022-09-15T04:44:58.110Z,2.72
2022-09-15T04:47:24.976Z,2.72
2022-09-15T04:49:51.768Z,2.33
2022-09-15T04:52:18.716Z,2.30
2022-09-15T04:54:45.670Z,2.40
2022-09-15T04:57:12.558Z,2.35
2022-09-15T04:59:39.403Z,2.83
2022-09-15T05:02:06.335Z,2.50
2022-09-15T05:04:33.569Z,2.60
2022-09-15T05:07:00.441Z,2.70
2022-09-15T05:09:29.489Z,2.90
2022-09-15T05:11:56.662Z,2.93
2022-09-15T05:14:23.692Z,3.10
2022-09-15T05:16:50.544Z,4.40
2022-09-15T05:19:17.386Z,4.05
2022-09-15T05:21:44.286Z,3.83
2022-09-15T05:24:11.155Z,3.42
2022-09-15T05:26:37.959Z,3.20
2022-09-15T05:29:04.833Z,3.17
2022-09-15T05:31:33.796Z,3.20
2022-09-15T05:34:03.068Z,3.40
2022-09-15T05:36:30.461Z,3.30
2022-09-15T05:38:57.895Z,3.08
2022-09-15T05:41:25.839Z,2.83
2022-09-15T05:43:54.773Z,3.10
2022-09-15T05:46:21.662Z,3.33
2022-09-15T05:48:48.570Z,3.30
2022-09-15T05:51:15.666Z,3.47
2022-09-15T05:53:42.611Z,3.53
2022-09-15T05:56:12.602Z,4.10
2022-09-15T05:58:41.648Z,3.80
2022-09-15T06:01:14.727Z,3.85
2022-09-15T06:03:41.954Z,3.65
2022-09-15T06:06:09.208Z,3.80
2022-09-15T06:08:44.304Z,3.90
2022-09-15T06:11:15.051Z,3.75
2022-09-15T06:13:42.684Z,3.78
2022-09-15T06:16:12.825Z,3.20
2022-09-15T06:18:40.654Z,3.22
2022-09-15T06:21:13.145Z,3.20
2022-09-15T06:23:40.795Z,3.38
2022-09-15T06:26:09.169Z,3.27
2022-09-15T06:28:36.187Z,3.30
2022-09-15T06:31:03.527Z,3.20
2022-09-15T06:33:30.400Z,3.67
2022-09-15T06:35:59.826Z,3.65
2022-09-15T06:38:26.699Z,3.97
2022-09-15T06:40:59.907Z,4.03
2022-09-15T06:43:26.801Z,4.13
2022-09-15T06:45:53.817Z,4.47
2022-09-15T06:48:24.968Z,4.10
2022-09-15T06:50:55.946Z,4.07
2022-09-15T06:53:22.975Z,4.23
2022-09-15T06:55:50.238Z,4.32
2022-09-15T06:58:17.187Z,4.28
2022-09-15T07:00:44.165Z,4.15
2022-09-15T07:03:11.164Z,4.20
2022-09-15T07:05:38.096Z,4.30
2022-09-15T07:08:04.891Z,4.30
2022-09-15T07:10:32.117Z,4.65
2022-09-15T07:13:01.196Z,4.27
2022-09-15T07:15:28.122Z,3.60
2022-09-15T07:17:54.937Z,3.40
2022-09-15T07:20:21.804Z,3.63
2022-09-15T07:22:48.726Z,3.72
2022-09-15T07:25:15.643Z,3.45
2022-09-15T07:27:42.507Z,3.60
2022-09-15T07:30:10.502Z,4.10
2022-09-15T07:32:37.419Z,4.60
2022-09-15T07:35:04.539Z,4.90
2022-09-15T07:37:32.388Z,4.70
2022-09-15T07:40:00.010Z,4.90
2022-09-15T07:42:26.947Z,4.18
2022-09-15T07:44:53.776Z,4.68
2022-09-15T07:47:20.662Z,4.15
2022-09-15T07:49:47.553Z,2.33
2022-09-15T07:52:14.434Z,2.10
2022-09-15T07:54:41.291Z,2.40
2022-09-15T07:57:08.163Z,2.17
2022-09-15T07:59:39.320Z,2.30
2022-09-15T08:02:13.882Z,2.63
2022-09-15T08:04:40.722Z,2.40
2022-09-15T08:07:07.475Z,2.30
2022-09-15T08:09:34.311Z,2.08
2022-09-15T08:12:01.200Z,2.30
2022-09-15T08:14:28.031Z,1.95
2022-09-15T08:16:54.907Z,2.05
2022-09-15T08:19:21.782Z,1.90
2022-09-15T08:21:48.906Z,2.20
2022-09-15T08:24:16.605Z,2.13
2022-09-15T08:26:43.487Z,1.95
2022-09-15T08:29:10.873Z,2.47
2022-09-15T08:31:37.907Z,2.00
2022-09-15T08:34:06.801Z,2.38
2022-09-15T08:36:34.235Z,2.20
2022-09-15T08:39:01.100Z,1.98
2022-09-15T08:41:31.829Z,1.90
2022-09-15T08:44:13.143Z,2.20
2022-09-15T08:46:48.698Z,1.92
2022-09-15T08:49:50.992Z,2.10
2022-09-15T08:52:30.303Z,1.98
2022-09-15T08:55:01.193Z,2.00
2022-09-15T08:57:28.186Z,2.05
2022-09-15T08:59:55.155Z,2.10
2022-09-15T09:02:46.766Z,1.98
2022-09-15T09:05:39.719Z,2.05
2022-09-15T09:08:16.758Z,2.20
2022-09-15T09:10:54.116Z,2.10
2022-09-15T09:13:35.247Z,2.03
2022-09-15T09:16:23.547Z,2.20
2022-09-15T09:19:05.918Z,2.50
2022-09-15T09:21:37.864Z,2.30
2022-09-15T09:24:13.706Z,2.00
2022-09-15T09:26:40.559Z,2.22
2022-09-15T09:29:26.758Z,1.90
2022-09-15T09:31:55.516Z,1.88
2022-09-15T09:34:42.763Z,1.90
2022-09-15T09:37:15.399Z,1.80
2022-09-15T09:39:42.649Z,2.30
2022-09-15T09:42:18.459Z,1.75
2022-09-15T09:44:46.760Z,1.60
2022-09-15T09:47:14.048Z,1.65
2022-09-15T09:49:47.181Z,1.80
2022-09-15T09:52:31.445Z,1.60
2022-09-15T09:55:03.644Z,1.50
2022-09-15T09:57:32.476Z,1.60
2022-09-15T09:59:59.322Z,1.80
2022-09-15T10:02:29.298Z,2.10
2022-09-15T10:05:20.012Z,1.70
2022-09-15T10:07:47.338Z,1.70
2022-09-15T10:10:23.620Z,1.70
2022-09-15T10:12:54.706Z,1.80
2022-09-15T10:15:25.930Z,1.70
2022-09-15T10:17:55.218Z,1.60
2022-09-15T10:20:35.523Z,1.60
2022-09-15T10:23:17.696Z,1.80
2022-09-15T10:25:58.566Z,1.48
2022-09-15T10:28:27.533Z,1.80
2022-09-15T10:31:04.936Z,1.70
2022-09-15T10:33:37.200Z,1.63
2022-09-15T10:36:11.554Z,1.42
2022-09-15T10:39:01.496Z,1.80
2022-09-15T10:41:34.995Z,1.60
2022-09-15T10:44:28.022Z,1.80
2022-09-15T10:47:13.369Z,1.70
2022-09-15T10:50:32.361Z,1.50
2022-09-15T10:53:02.204Z,1.75
2022-09-15T10:55:54.878Z,1.53
2022-09-15T10:58:30.755Z,1.80
2022-09-15T11:01:18.966Z,2.00
2022-09-15T11:04:17.541Z,1.80
2022-09-15T11:06:57.570Z,2.00
2022-09-15T11:09:28.266Z,1.80
2022-09-15T11:11:55.141Z,1.70
2022-09-15T11:14:52.996Z,1.80
2022-09-15T11:17:34.140Z,1.80
2022-09-15T11:20:24.342Z,1.80
2022-09-15T11:23:11.239Z,1.65
2022-09-15T11:25:45.092Z,1.40
2022-09-15T11:28:24.747Z,1.67
2022-09-15T11:31:07.157Z,1.73
2022-09-15T11:33:41.791Z,1.50
2022-09-15T11:36:17.872Z,1.67
2022-09-15T11:38:52.893Z,1.50
2022-09-15T11:41:38.284Z,1.77
2022-09-15T11:44:29.952Z,1.58
2022-09-15T11:47:14.854Z,1.90
2022-09-15T11:50:07.850Z,1.50
2022-09-15T11:52:47.143Z,1.33
2022-09-15T11:55:17.315Z,1.50
2022-09-15T11:58:16.339Z,1.30
2022-09-15T12:00:52.742Z,1.40
2022-09-15T12:03:35.327Z,1.45
2022-09-15T12:06:28.411Z,1.50
2022-09-15T12:09:00.941Z,1.65
2022-09-15T12:11:32.024Z,1.60
2022-09-15T12:13:59.994Z,1.40
2022-09-15T12:16:27.783Z,1.50
2022-09-15T12:19:38.332Z,1.50
2022-09-15T12:22:09.546Z,1.58
2022-09-15T12:25:05.597Z,1.40
2022-09-15T12:27:32.463Z,1.65
2022-09-15T12:30:00.939Z,1.40
2022-09-15T12:32:33.182Z,1.50
2022-09-15T12:35:05.074Z,1.52
2022-09-15T12:37:47.721Z,1.65
2022-09-15T12:40:39.803Z,1.52
2022-09-15T12:43:15.951Z,1.70
2022-09-15T12:45:58.680Z,1.67
2022-09-15T12:48:35.717Z,1.50
2022-09-15T12:51:05.695Z,1.55
2022-09-15T12:56:10.414Z,1.73
2022-09-15T12:58:45.754Z,1.70
2022-09-15T13:01:18.840Z,1.52
2022-09-15T13:03:46.146Z,1.58
2022-09-15T13:06:16.060Z,1.65
2022-09-15T13:08:46.743Z,1.67
2022-09-15T13:11:36.876Z,1.88
2022-09-15T13:14:03.862Z,1.65
2022-09-15T13:16:48.142Z,1.60
2022-09-15T13:19:26.837Z,1.98
2022-09-15T13:22:11.773Z,1.70
2022-09-15T13:25:10.868Z,1.80
2022-09-15T13:27:39.752Z,1.60
2022-09-15T13:30:40.495Z,1.80
2022-09-15T13:33:19.266Z,1.65
2022-09-15T13:35:52.077Z,1.92
2022-09-15T13:38:29.277Z,1.83
2022-09-15T13:40:58.368Z,1.80
2022-09-15T13:43:47.416Z,1.90
2022-09-15T13:46:45.575Z,1.60
2022-09-15T13:49:35.594Z,1.70
2022-09-15T13:52:23.508Z,1.60
2022-09-15T13:55:15.500Z,2.00
2022-09-15T14:01:07.967Z,1.58
2022-09-15T14:03:42.743Z,1.50
2022-09-15T14:06:37.783Z,1.55
2022-09-15T14:09:14.994Z,1.40
2022-09-15T14:11:43.902Z,1.60
2022-09-15T14:14:22.090Z,1.98
2022-09-15T14:16:50.829Z,1.67
2022-09-15T14:19:38.014Z,1.67
2022-09-15T14:22:28.716Z,1.50
2022-09-15T14:25:00.863Z,1.70
2022-09-15T14:27:33.932Z,1.67
2022-09-15T14:30:09.335Z,1.80
2022-09-15T14:32:43.088Z,1.50
2022-09-15T14:35:19.516Z,1.77
2022-09-15T14:37:56.592Z,1.70
2022-09-15T14:40:38.188Z,1.50
2022-09-15T14:43:35.580Z,1.40
2022-09-15T14:46:13.555Z,1.58
2022-09-15T14:48:40.578Z,1.42
2022-09-15T14:51:25.687Z,1.60
2022-09-15T14:53:57.912Z,1.73
2022-09-15T14:56:29.784Z,1.63
2022-09-15T14:59:01.729Z,1.45
2022-09-15T15:01:37.701Z,1.50
2022-09-15T15:04:26.036Z,1.80
2022-09-15T15:07:23.878Z,1.60
2022-09-15T15:09:56.612Z,1.60
2022-09-15T15:12:33.441Z,1.52
2022-09-15T15:15:01.126Z,1.60
2022-09-15T15:17:39.075Z,1.70
2022-09-15T15:20:05.860Z,1.90
2022-09-15T15:22:32.911Z,1.70
2022-09-15T15:25:00.539Z,1.73
2022-09-15T15:27:33.445Z,1.60
2022-09-15T15:30:30.898Z,1.60
2022-09-15T15:33:25.420Z,1.50
2022-09-15T15:36:08.224Z,1.50
2022-09-15T15:38:49.743Z,1.60
2022-09-15T15:41:28.424Z,1.40
2022-09-15T15:44:08.102Z,1.42
2022-09-15T15:47:05.937Z,1.60
2022-09-15T15:49:33.171Z,1.73
2022-09-15T15:52:01.693Z,1.73
2022-09-15T15:54:29.479Z,1.30
2022-09-15T15:57:20.448Z,1.50
2022-09-15T15:59:47.281Z,1.70
2022-09-15T16:02:14.184Z,1.70
2022-09-15T16:04:41.109Z,1.30
2022-09-15T16:07:16.683Z,1.65
2022-09-15T16:09:44.342Z,1.30
2022-09-15T16:12:11.307Z,1.50
2022-09-15T16:14:39.429Z,1.48
2022-09-15T16:17:06.270Z,1.20
2022-09-15T16:19:33.122Z,1.40
2022-09-15T16:22:02.492Z,1.40
2022-09-15T16:24:29.666Z,1.20
2022-09-15T16:26:56.870Z,1.30
2022-09-15T16:29:30.807Z,1.40
2022-09-15T16:31:57.792Z,1.25
2022-09-15T16:34:24.758Z,1.60
2022-09-15T16:36:51.832Z,1.60
2022-09-15T16:39:18.835Z,1.30
2022-09-15T16:41:45.667Z,1.40
2022-09-15T16:44:18.950Z,1.63
2022-09-15T16:46:45.856Z,1.35
2022-09-15T16:49:12.904Z,1.40
2022-09-15T16:51:40.186Z,2.00
2022-09-15T16:54:16.116Z,1.50
2022-09-15T16:56:45.391Z,1.40
2022-09-15T16:59:12.706Z,1.40
2022-09-15T17:01:39.925Z,1.38
2022-09-15T17:04:17.441Z,1.20
2022-09-15T17:06:44.426Z,1.27
2022-09-15T17:09:11.598Z,1.30
2022-09-15T17:11:39.059Z,1.50
2022-09-15T17:14:06.175Z,1.42
2022-09-15T17:16:33.080Z,1.35
2022-09-15T17:19:01.362Z,1.30
2022-09-15T17:21:28.655Z,1.38
2022-09-15T17:23:55.554Z,1.20
2022-09-15T17:26:31.077Z,1.23
2022-09-15T17:28:59.245Z,1.27
2022-09-15T17:31:28.890Z,1.10
2022-09-15T17:33:56.892Z,1.30
2022-09-15T17:36:23.992Z,1.30
2022-09-15T17:38:51.511Z,1.50
2022-09-15T17:41:20.460Z,1.30
2022-09-15T17:43:47.696Z,1.20
2022-09-15T17:46:15.153Z,1.30
2022-09-15T17:48:43.017Z,1.35
2022-09-15T17:51:14.879Z,1.40
2022-09-15T17:53:42.621Z,1.30
2022-09-15T17:56:09.525Z,1.38
2022-09-15T17:58:36.463Z,1.40
2022-09-15T18:01:03.854Z,1.23
2022-09-15T18:03:34.692Z,1.20
2022-09-15T18:06:05.255Z,1.20
2022-09-15T18:08:33.157Z,1.20
2022-09-15T18:11:00.902Z,1.20
2022-09-15T18:13:29.953Z,1.20
2022-09-15T18:15:58.194Z,1.48
2022-09-15T18:18:27.843Z,1.50
2022-09-15T18:20:57.890Z,1.50
2022-09-15T18:23:26.338Z,1.20
2022-09-15T18:25:53.598Z,1.43
2022-09-15T18:28:20.735Z,1.35
2022-09-15T18:30:49.455Z,1.23
2022-09-15T18:33:24.113Z,1.45
2022-09-15T18:35:54.005Z,1.30
2022-09-15T18:38:21.778Z,1.27
2022-09-15T18:40:55.140Z,1.27
2022-09-15T18:43:23.570Z,1.35
2022-09-15T18:45:50.461Z,1.50
2022-09-15T18:48:17.504Z,1.67
2022-09-15T18:50:45.141Z,1.70
2022-09-15T18:53:12.378Z,1.30
2022-09-15T18:55:41.898Z,1.50
2022-09-15T18:58:09.334Z,1.30
2022-09-15T19:00:36.654Z,1.70
2022-09-15T19:03:06.066Z,1.60
2022-09-15T19:05:34.169Z,1.63
2022-09-15T19:08:02.272Z,1.40
2022-09-15T19:10:29.364Z,1.30
2022-09-15T19:12:56.264Z,1.52
2022-09-15T19:15:24.277Z,1.50
2022-09-15T19:17:51.584Z,1.30
2022-09-15T19:20:19.003Z,1.35
2022-09-15T19:22:46.392Z,1.60
2022-09-15T19:25:13.486Z,1.25
2022-09-15T19:27:44.150Z,1.50
2022-09-15T19:30:12.164Z,1.55
2022-09-15T19:32:40.151Z,1.42
2022-09-15T19:35:08.730Z,1.70
2022-09-15T19:37:38.004Z,1.70
2022-09-15T19:40:08.970Z,1.60
2022-09-15T19:42:38.195Z,1.60
2022-09-15T19:45:05.943Z,1.77
2022-09-15T19:47:32.933Z,1.77
2022-09-15T19:50:00.004Z,1.80
2022-09-15T19:52:27.585Z,1.70
2022-09-15T19:54:54.612Z,1.30
2022-09-15T19:57:21.459Z,1.42
2022-09-15T19:59:50.983Z,1.45
2022-09-15T20:02:17.911Z,1.60
2022-09-15T20:04:44.810Z,1.60
2022-09-15T20:07:12.586Z,1.40
2022-09-15T20:09:39.481Z,1.50
2022-09-15T20:12:06.488Z,1.90
2022-09-15T20:14:33.386Z,1.50
2022-09-15T20:17:01.371Z,1.40
2022-09-15T20:19:29.378Z,1.85
2022-09-15T20:21:56.172Z,1.48
2022-09-15T20:24:24.058Z,1.40
2022-09-15T20:26:51.967Z,1.50
2022-09-15T20:29:19.533Z,1.50
2022-09-15T20:31:47.056Z,1.40
2022-09-15T20:34:14.179Z,1.50
2022-09-15T20:36:41.991Z,1.38
2022-09-15T20:39:13.127Z,1.30
2022-09-15T20:41:41.813Z,1.48
2022-09-15T20:44:09.500Z,1.53
2022-09-15T20:46:36.399Z,1.40
2022-09-15T20:49:04.646Z,1.50
2022-09-15T20:51:33.468Z,1.55
2022-09-15T20:54:03.391Z,1.50
2022-09-15T20:56:32.435Z,1.50
2022-09-15T20:59:00.486Z,1.60
2022-09-15T21:01:36.729Z,1.40
2022-09-15T21:04:04.343Z,1.40
2022-09-15T21:06:31.701Z,1.40
2022-09-15T21:08:59.016Z,1.30
2022-09-15T21:11:27.497Z,1.20
2022-09-15T21:13:55.276Z,1.52
2022-09-15T21:16:24.740Z,1.60
2022-09-15T21:18:52.444Z,1.30
2022-09-15T21:21:25.882Z,1.50
2022-09-15T21:24:03.464Z,1.35
2022-09-15T21:27:00.223Z,1.40
2022-09-15T21:29:27.899Z,1.40
2022-09-15T21:31:55.846Z,1.50
2022-09-15T21:34:23.897Z,1.70
2022-09-15T21:36:51.813Z,2.20
2022-09-15T21:39:18.801Z,1.95
2022-09-15T21:41:45.730Z,2.00
2022-09-15T21:44:12.628Z,2.10
2022-09-15T21:46:42.594Z,1.80
2022-09-15T21:49:09.551Z,1.88
2022-09-15T21:51:36.674Z,2.05
2022-09-15T21:54:03.624Z,1.70
2022-09-15T21:56:30.839Z,1.90
2022-09-15T21:58:58.108Z,1.93
2022-09-15T22:01:28.085Z,2.13
2022-09-15T22:04:00.517Z,2.03
2022-09-15T22:06:31.775Z,2.55
2022-09-15T22:09:05.504Z,2.30
2022-09-15T22:11:33.116Z,2.20
2022-09-15T22:14:02.788Z,2.20
2022-09-15T22:16:30.187Z,2.30
2022-09-15T22:18:57.527Z,2.30
2022-09-15T22:21:27.286Z,2.00
2022-09-15T22:23:56.512Z,2.40
2022-09-15T22:26:31.832Z,2.30
2022-09-15T22:28:59.938Z,2.17
2022-09-15T22:31:28.348Z,2.15
2022-09-15T22:33:55.946Z,2.25
2022-09-15T22:36:29.234Z,2.20
2022-09-15T22:39:04.159Z,1.90
2022-09-15T22:41:36.572Z,2.25
2022-09-15T22:44:05.164Z,2.15
2022-09-15T22:46:32.309Z,2.10
2022-09-15T22:48:59.783Z,2.22
2022-09-15T22:51:26.650Z,2.17
2022-09-15T22:53:55.459Z,2.20
2022-09-15T22:56:23.187Z,2.08
2022-09-15T22:58:50.120Z,2.00
2022-09-15T23:01:19.956Z,1.73
2022-09-15T23:03:51.700Z,2.00
2022-09-15T23:06:19.060Z,2.00
2022-09-15T23:08:53.773Z,1.92
2022-09-15T23:11:21.222Z,1.70
2022-09-15T23:13:48.412Z,1.98
2022-09-15T23:16:15.695Z,1.98
2022-09-15T23:18:42.945Z,1.80
2022-09-15T23:21:11.476Z,1.90
2022-09-15T23:23:40.800Z,2.03
2022-09-15T23:26:10.152Z,1.80
2022-09-15T23:28:39.224Z,1.90
2022-09-15T23:31:07.064Z,2.00
2022-09-15T23:33:34.570Z,2.08
2022-09-15T23:36:06.963Z,2.13
2022-09-15T23:38:39.577Z,2.20
2022-09-15T23:41:06.885Z,2.25
2022-09-15T23:43:34.234Z,2.53
2022-09-15T23:46:01.777Z,2.10
2022-09-15T23:48:29.093Z,2.05
2022-09-15T23:50:55.993Z,2.17
2022-09-15T23:53:22.954Z,2.20
2022-09-15T23:55:50.229Z,2.35
2022-09-15T23:58:17.369Z,2.25
